createdAt,value
2023-01-07T00:01:28.669Z,101228.06
2023-01-07T00:03:56.588Z,101226.28
2023-01-07T00:06:25.500Z,101228.41
2023-01-07T00:08:54.064Z,101222.41
2023-01-07T00:11:23.084Z,101229.47
2023-01-07T00:13:51.364Z,101235.84
2023-01-07T00:16:20.074Z,101227.22
2023-01-07T00:18:47.309Z,101229.38
2023-01-07T00:21:16.290Z,101225.34
2023-01-07T00:23:43.877Z,101223.72
2023-01-07T00:26:14.538Z,101212.13
2023-01-07T00:28:43.076Z,101226.50
2023-01-07T00:31:12.043Z,101215.66
2023-01-07T00:34:02.700Z,101222.13
2023-01-07T00:36:32.154Z,101223.53
2023-01-07T00:39:21.133Z,101226.00
2023-01-07T00:42:07.343Z,101219.78
2023-01-07T00:44:34.652Z,101221.63
2023-01-07T00:47:02.693Z,101222.47
2023-01-07T00:49:29.602Z,101223.53
2023-01-07T00:51:56.008Z,101216.47
2023-01-07T00:54:22.461Z,101210.00
2023-01-07T00:56:49.686Z,101209.25
2023-01-07T00:59:16.173Z,101217.88
2023-01-07T01:01:43.944Z,101196.69
2023-01-07T01:04:10.433Z,101208.59
2023-01-07T01:06:37.035Z,101194.47
2023-01-07T01:09:03.653Z,101186.59
2023-01-07T01:11:30.234Z,101184.13
2023-01-07T01:13:56.622Z,101186.59
2023-01-07T01:16:23.213Z,101190.94
2023-01-07T01:18:49.641Z,101177.16
2023-01-07T01:21:17.058Z,101185.03
2023-01-07T01:23:43.816Z,101180.94
2023-01-07T01:26:13.415Z,101177.41
2023-01-07T01:28:40.544Z,101174.75
2023-01-07T01:31:09.153Z,101174.94
2023-01-07T01:33:46.316Z,101175.69
2023-01-07T01:36:13.199Z,101170.19
2023-01-07T01:38:41.034Z,101187.19
2023-01-07T01:41:08.494Z,101190.72
2023-01-07T01:43:40.814Z,101187.44
2023-01-07T01:46:20.821Z,101190.25
2023-01-07T01:49:02.732Z,101192.09
2023-01-07T01:51:36.902Z,101178.88
2023-01-07T01:54:07.146Z,101175.94
2023-01-07T01:56:37.635Z,101186.75
2023-01-07T01:59:12.298Z,101183.50
2023-01-07T02:01:39.595Z,101178.56
2023-01-07T02:04:16.094Z,101186.13
2023-01-07T02:06:55.964Z,101177.03
2023-01-07T02:09:24.148Z,101174.56
2023-01-07T02:12:11.176Z,101182.75
2023-01-07T02:15:08.281Z,101174.38
2023-01-07T02:18:11.114Z,101171.25
2023-01-07T02:21:02.562Z,101165.56
2023-01-07T02:23:44.562Z,101162.75
2023-01-07T02:26:36.346Z,101176.47
2023-01-07T02:29:51.215Z,101160.81
2023-01-07T02:32:46.438Z,101161.81
2023-01-07T02:35:38.826Z,101165.13
2023-01-07T02:38:18.246Z,101165.72
2023-01-07T02:40:58.252Z,101165.88
2023-01-07T02:43:47.628Z,101159.56
2023-01-07T02:46:30.560Z,101161.16
2023-01-07T02:49:04.131Z,101158.69
2023-01-07T02:51:39.140Z,101148.84
2023-01-07T02:54:09.939Z,101152.03
2023-01-07T02:56:59.180Z,101140.09
2023-01-07T02:59:33.187Z,101139.19
2023-01-07T03:02:35.707Z,101138.84
2023-01-07T03:05:17.512Z,101137.72
2023-01-07T03:08:05.547Z,101140.69
2023-01-07T03:10:43.551Z,101138.22
2023-01-07T03:13:16.638Z,101131.50
2023-01-07T03:16:02.934Z,101117.53
2023-01-07T03:18:32.848Z,101112.00
2023-01-07T03:21:10.048Z,101121.31
2023-01-07T03:23:40.815Z,101117.03
2023-01-07T03:26:10.293Z,101120.94
2023-01-07T03:28:41.386Z,101122.00
2023-01-07T03:31:13.750Z,101121.16
2023-01-07T03:33:52.374Z,101126.88
2023-01-07T03:36:25.101Z,101120.16
2023-01-07T03:38:55.376Z,101121.06
2023-01-07T03:41:41.182Z,101118.59
2023-01-07T03:44:07.718Z,101109.06
2023-01-07T03:46:36.121Z,101107.81
2023-01-07T03:49:04.515Z,101105.66
2023-01-07T03:51:32.279Z,101105.00
2023-01-07T03:53:59.116Z,101108.47
2023-01-07T03:56:26.188Z,101101.19
2023-01-07T03:58:52.731Z,101108.72
2023-01-07T04:01:19.367Z,101105.75
2023-01-07T04:03:45.882Z,101094.91
2023-01-07T04:06:12.453Z,101097.31
2023-01-07T04:08:39.501Z,101094.06
2023-01-07T04:11:06.575Z,101094.06
2023-01-07T04:13:33.566Z,101084.53
2023-01-07T04:16:00.038Z,101076.38
2023-01-07T04:18:28.102Z,101080.25
2023-01-07T04:20:54.939Z,101075.31
2023-01-07T04:23:21.364Z,101073.94
2023-01-07T04:25:49.861Z,101078.28
2023-01-07T04:28:20.627Z,101070.97
2023-01-07T04:30:47.288Z,101073.69
2023-01-07T04:33:14.670Z,101063.38
2023-01-07T04:35:41.195Z,101074.63
2023-01-07T04:38:07.825Z,101070.56
2023-01-07T04:40:34.541Z,101062.94
2023-01-07T04:43:02.388Z,101068.94
2023-01-07T04:45:30.655Z,101066.78
2023-01-07T04:47:59.362Z,101064.28
2023-01-07T04:50:27.473Z,101055.59
2023-01-07T04:52:54.654Z,101053.72
2023-01-07T04:55:22.322Z,101052.38
2023-01-07T04:57:48.862Z,101048.34
2023-01-07T05:00:16.739Z,101051.31
2023-01-07T05:02:46.298Z,101057.88
2023-01-07T05:05:12.857Z,101055.38
2023-01-07T05:07:40.358Z,101052.13
2023-01-07T05:10:08.806Z,101043.22
2023-01-07T05:12:36.996Z,101038.91
2023-01-07T05:15:06.477Z,101043.22
2023-01-07T05:17:35.812Z,101048.59
2023-01-07T05:20:05.249Z,101043.38
2023-01-07T05:22:31.708Z,101041.75
2023-01-07T05:24:58.140Z,101050.16
2023-01-07T05:27:26.603Z,101041.19
2023-01-07T05:29:53.257Z,101028.38
2023-01-07T05:32:19.734Z,101032.44
2023-01-07T05:34:46.423Z,101040.38
2023-01-07T05:37:14.696Z,101036.53
2023-01-07T05:39:42.949Z,101034.09
2023-01-07T05:42:09.616Z,101035.25
2023-01-07T05:44:36.378Z,101029.22
2023-01-07T05:47:03.251Z,101032.97
2023-01-07T05:49:29.666Z,101032.16
2023-01-07T05:51:56.063Z,101030.63
2023-01-07T05:54:22.493Z,101043.34
2023-01-07T05:56:48.925Z,101039.56
2023-01-07T05:59:15.405Z,101041.38
2023-01-07T06:01:41.840Z,101036.28
2023-01-07T06:04:08.351Z,101037.06
2023-01-07T06:06:34.852Z,101039.97
2023-01-07T06:09:01.931Z,101038.88
2023-01-07T06:11:28.411Z,101046.81
2023-01-07T06:13:54.826Z,101044.25
2023-01-07T06:16:21.223Z,101040.69
2023-01-07T06:18:47.628Z,101040.69
2023-01-07T06:21:16.078Z,101043.91
2023-01-07T06:23:43.494Z,101034.97
2023-01-07T06:26:09.898Z,101039.75
2023-01-07T06:28:36.344Z,101035.97
2023-01-07T06:31:02.974Z,101033.00
2023-01-07T06:33:29.511Z,101026.78
2023-01-07T06:35:55.892Z,101019.50
2023-01-07T06:38:22.319Z,101024.53
2023-01-07T06:40:48.756Z,101018.16
2023-01-07T06:43:15.163Z,101028.94
2023-01-07T06:45:41.784Z,101028.13
2023-01-07T06:48:08.253Z,101030.84
2023-01-07T06:50:34.748Z,101020.06
2023-01-07T06:53:01.985Z,101017.81
2023-01-07T06:55:28.649Z,101014.03
2023-01-07T06:57:55.025Z,101017.38
2023-01-07T07:00:21.511Z,101019.25
2023-01-07T07:02:47.999Z,101020.78
2023-01-07T07:05:14.491Z,101017.19
2023-01-07T07:07:40.951Z,101013.88
2023-01-07T07:10:08.351Z,101010.56
2023-01-07T07:12:36.441Z,101016.03
2023-01-07T07:15:04.462Z,101011.59
2023-01-07T07:17:30.921Z,101017.44
2023-01-07T07:19:57.384Z,101015.97
2023-01-07T07:22:23.761Z,101010.63
2023-01-07T07:24:50.181Z,101019.91
2023-01-07T07:27:16.661Z,101015.03
2023-01-07T07:29:43.130Z,101014.47
2023-01-07T07:32:09.533Z,101010.06
2023-01-07T07:34:36.679Z,101014.97
2023-01-07T07:37:04.222Z,101008.66
2023-01-07T07:39:30.872Z,101012.38
2023-01-07T07:41:57.264Z,101008.16
2023-01-07T07:44:23.731Z,101012.69
2023-01-07T07:46:50.242Z,101005.84
2023-01-07T07:49:16.632Z,101002.88
2023-01-07T07:51:43.039Z,101009.44
2023-01-07T07:54:09.507Z,100999.16
2023-01-07T07:56:36.402Z,101001.00
2023-01-07T07:59:03.681Z,100993.47
2023-01-07T08:01:33.614Z,101001.81
2023-01-07T08:04:03.261Z,100999.91
2023-01-07T08:06:29.703Z,101005.91
2023-01-07T08:08:56.119Z,101000.78
2023-01-07T08:11:22.521Z,101001.41
2023-01-07T08:13:48.923Z,101000.09
2023-01-07T08:16:15.420Z,101004.56
2023-01-07T08:18:42.569Z,100999.72
2023-01-07T08:21:08.955Z,101002.94
2023-01-07T08:23:35.547Z,100992.72
2023-01-07T08:26:03.292Z,100992.97
2023-01-07T08:28:33.583Z,100991.06
2023-01-07T08:31:07.983Z,101000.47
2023-01-07T08:33:37.836Z,101002.09
2023-01-07T08:36:18.172Z,101004.44
2023-01-07T08:38:54.033Z,101001.00
2023-01-07T08:41:22.474Z,100998.31
2023-01-07T08:43:49.059Z,100990.75
2023-01-07T08:46:15.809Z,100997.72
2023-01-07T08:48:42.264Z,101001.09
2023-01-07T08:51:08.724Z,100995.97
2023-01-07T08:53:35.442Z,100996.22
2023-01-07T08:56:02.644Z,100999.06
2023-01-07T08:58:29.165Z,100996.59
2023-01-07T09:01:03.474Z,100987.31
2023-01-07T09:03:29.999Z,100990.09
2023-01-07T09:05:56.540Z,100985.34
2023-01-07T09:08:22.921Z,100985.84
2023-01-07T09:10:49.364Z,100981.53
2023-01-07T09:13:15.841Z,100981.22
2023-01-07T09:15:42.213Z,100991.81
2023-01-07T09:18:08.706Z,100986.56
2023-01-07T09:20:35.388Z,100983.84
2023-01-07T09:23:03.911Z,100989.31
2023-01-07T09:25:30.367Z,100982.81
2023-01-07T09:27:56.771Z,100981.41
2023-01-07T09:30:23.231Z,100977.84
2023-01-07T09:32:49.693Z,100983.00
2023-01-07T09:35:16.124Z,100982.75
2023-01-07T09:37:42.545Z,100984.94
2023-01-07T09:40:23.435Z,100978.69
2023-01-07T09:42:57.702Z,100981.22
2023-01-07T09:45:29.188Z,100970.69
2023-01-07T09:47:58.408Z,100972.31
2023-01-07T09:50:40.958Z,100976.47
2023-01-07T09:53:15.699Z,100972.91
2023-01-07T09:56:11.294Z,100969.88
2023-01-07T09:58:30.149Z,100965.03
2023-01-07T10:01:04.756Z,100959.34
2023-01-07T10:03:55.043Z,100958.25
2023-01-07T10:06:46.339Z,100951.47
2023-01-07T10:09:17.637Z,100951.72
2023-01-07T10:12:04.682Z,100945.50
2023-01-07T10:14:56.864Z,100949.13
2023-01-07T10:17:45.828Z,100945.03
2023-01-07T10:20:44.549Z,100941.78
2023-01-07T10:23:28.721Z,100933.63
2023-01-07T10:25:57.248Z,100928.81
2023-01-07T10:28:44.911Z,100929.91
2023-01-07T10:31:25.529Z,100922.59
2023-01-07T10:33:52.722Z,100928.03
2023-01-07T10:36:28.762Z,100928.63
2023-01-07T10:39:16.927Z,100932.41
2023-01-07T10:41:55.965Z,100930.50
2023-01-07T10:44:43.798Z,100920.22
2023-01-07T10:47:16.301Z,100913.69
2023-01-07T10:50:23.928Z,100914.28
2023-01-07T10:53:22.791Z,100906.69
2023-01-07T10:55:54.378Z,100900.13
2023-01-07T10:58:21.764Z,100903.16
2023-01-07T11:00:49.090Z,100899.38
2023-01-07T11:03:20.784Z,100907.47
2023-01-07T11:05:53.619Z,100891.19
2023-01-07T11:11:24.456Z,100890.94
2023-01-07T11:14:30.016Z,100885.50
2023-01-07T11:17:06.363Z,100887.16
2023-01-07T11:19:49.080Z,100880.88
2023-01-07T11:22:28.015Z,100872.50
2023-01-07T11:24:56.513Z,100874.66
2023-01-07T11:27:28.433Z,100869.78
2023-01-07T11:30:10.692Z,100869.81
2023-01-07T11:32:40.403Z,100861.41
2023-01-07T11:35:09.950Z,100854.88
2023-01-07T11:37:38.797Z,100855.72
2023-01-07T11:40:30.102Z,100847.84
2023-01-07T11:43:05.261Z,100845.41
2023-01-07T11:46:19.564Z,100836.16
2023-01-07T11:48:37.818Z,100828.00
2023-01-07T11:51:07.084Z,100820.41
2023-01-07T11:53:45.530Z,100816.91
2023-01-07T11:56:14.234Z,100815.25
2023-01-07T11:58:44.844Z,100805.47
2023-01-07T12:01:22.685Z,100805.19
2023-01-07T12:03:52.163Z,100801.94
2023-01-07T12:06:22.667Z,100799.22
2023-01-07T12:08:56.570Z,100794.88
2023-01-07T12:11:31.376Z,100781.53
2023-01-07T12:14:07.591Z,100771.47
2023-01-07T12:16:36.545Z,100777.19
2023-01-07T12:19:40.916Z,100770.13
2023-01-07T12:22:21.183Z,100765.25
2023-01-07T12:25:18.083Z,100770.66
2023-01-07T12:28:10.841Z,100764.41
2023-01-07T12:30:40.969Z,100764.66
2023-01-07T12:33:33.821Z,100756.00
2023-01-07T12:36:12.040Z,100757.91
2023-01-07T12:38:50.533Z,100747.84
2023-01-07T12:41:26.181Z,100745.66
2023-01-07T12:44:00.090Z,100728.56
2023-01-07T12:46:33.738Z,100728.56
2023-01-07T12:49:11.013Z,100723.13
2023-01-07T12:51:48.670Z,100720.41
2023-01-07T12:54:31.211Z,100715.25
2023-01-07T12:57:03.305Z,100715.25
2023-01-07T12:59:46.121Z,100713.34
2023-01-07T13:03:02.043Z,100703.56
2023-01-07T13:05:38.860Z,100706.00
2023-01-07T13:08:29.742Z,100698.13
2023-01-07T13:11:16.235Z,100696.22
2023-01-07T13:13:51.443Z,100687.81
2023-01-07T13:16:17.931Z,100693.25
2023-01-07T13:18:44.419Z,100685.38
2023-01-07T13:21:14.649Z,100686.47
2023-01-07T13:24:07.335Z,100685.09
2023-01-07T13:26:51.751Z,100681.03
2023-01-07T13:30:03.097Z,100666.91
2023-01-07T13:32:58.899Z,100668.53
2023-01-07T13:35:48.404Z,100663.09
2023-01-07T13:38:33.565Z,100653.03
2023-01-07T13:41:17.550Z,100648.19
2023-01-07T13:44:09.214Z,100650.06
2023-01-07T13:46:40.913Z,100647.91
2023-01-07T13:49:26.348Z,100644.38
2023-01-07T13:51:53.521Z,100647.06
2023-01-07T13:54:47.648Z,100636.22
2023-01-07T13:57:25.939Z,100639.19
2023-01-07T13:59:57.361Z,100637.06
2023-01-07T14:02:25.897Z,100635.97
2023-01-07T14:05:10.553Z,100630.53
2023-01-07T14:07:49.041Z,100613.16
2023-01-07T14:10:35.944Z,100622.38
2023-01-07T14:13:33.974Z,100616.16
2023-01-07T14:16:20.595Z,100603.38
2023-01-07T14:18:56.553Z,100606.63
2023-01-07T14:21:48.734Z,100609.06
2023-01-07T14:24:52.248Z,100613.16
2023-01-07T14:27:45.917Z,100610.44
2023-01-07T14:30:35.069Z,100606.34
2023-01-07T14:33:04.410Z,100604.47
2023-01-07T14:35:36.665Z,100594.94
2023-01-07T14:38:31.314Z,100593.03
2023-01-07T14:41:04.027Z,100599.31
2023-01-07T14:43:45.906Z,100598.22
2023-01-07T14:46:45.895Z,100586.00
2023-01-07T14:49:50.047Z,100599.59
2023-01-07T14:52:48.801Z,100592.25
2023-01-07T14:55:38.265Z,100589.28
2023-01-07T14:58:35.742Z,100583.00
2023-01-07T15:01:23.144Z,100578.69
2023-01-07T15:03:56.515Z,100574.88
2023-01-07T15:06:27.182Z,100567.28
2023-01-07T15:09:22.753Z,100567.00
2023-01-07T15:12:11.186Z,100566.47
2023-01-07T15:15:19.186Z,100572.44
2023-01-07T15:17:46.297Z,100565.13
2023-01-07T15:20:12.793Z,100565.66
2023-01-07T15:23:05.817Z,100558.06
2023-01-07T15:25:46.014Z,100547.50
2023-01-07T15:28:35.139Z,100551.53
2023-01-07T15:31:19.687Z,100544.75
2023-01-07T15:33:58.084Z,100542.03
2023-01-07T15:36:24.888Z,100534.72
2023-01-07T15:38:53.687Z,100524.69
2023-01-07T15:41:46.607Z,100529.56
2023-01-07T15:44:17.636Z,100524.41
2023-01-07T15:46:44.358Z,100517.91
2023-01-07T15:49:22.871Z,100511.66
2023-01-07T15:51:54.430Z,100514.63
2023-01-07T15:54:35.212Z,100498.91
2023-01-07T15:57:07.258Z,100500.00
2023-01-07T15:59:38.073Z,100495.38
2023-01-07T16:02:25.619Z,100494.03
2023-01-07T16:04:55.588Z,100492.41
2023-01-07T16:07:32.936Z,100488.06
2023-01-07T16:10:00.196Z,100495.66
2023-01-07T16:12:26.612Z,100488.84
2023-01-07T16:14:53.079Z,100486.41
2023-01-07T16:17:19.635Z,100489.13
2023-01-07T16:19:46.498Z,100486.69
2023-01-07T16:22:16.972Z,100482.63
2023-01-07T16:24:52.009Z,100470.16
2023-01-07T16:27:28.222Z,100468.28
2023-01-07T16:29:57.797Z,100463.13
2023-01-07T16:32:24.817Z,100456.31
2023-01-07T16:35:03.005Z,100446.84
2023-01-07T16:37:30.270Z,100446.84
2023-01-07T16:39:56.959Z,100445.47
2023-01-07T16:42:23.735Z,100445.22
2023-01-07T16:44:53.065Z,100450.91
2023-01-07T16:47:30.887Z,100453.63
2023-01-07T16:50:39.704Z,100459.31
2023-01-07T16:53:38.321Z,100462.28
2023-01-07T16:56:18.550Z,100451.75
2023-01-07T16:58:53.627Z,100443.31
2023-01-07T17:01:29.717Z,100441.16
2023-01-07T17:03:59.421Z,100443.59
2023-01-07T17:06:30.465Z,100432.47
2023-01-07T17:08:57.473Z,100434.94
2023-01-07T17:11:37.334Z,100436.56
2023-01-07T17:14:04.181Z,100423.00
2023-01-07T17:16:32.602Z,100426.50
2023-01-07T17:19:25.584Z,100427.00
2023-01-07T17:21:53.193Z,100412.91
2023-01-07T17:24:42.679Z,100413.44
2023-01-07T17:27:20.267Z,100413.44
2023-01-07T17:29:46.772Z,100418.88
2023-01-07T17:32:13.949Z,100410.22
2023-01-07T17:34:40.359Z,100414.00
2023-01-07T17:37:13.110Z,100405.06
2023-01-07T17:39:39.555Z,100397.47
2023-01-07T17:42:37.986Z,100397.72
2023-01-07T17:45:05.021Z,100397.47
2023-01-07T17:47:32.199Z,100387.69
2023-01-07T17:49:59.099Z,100387.69
2023-01-07T17:52:25.533Z,100382.28
2023-01-07T17:54:51.944Z,100369.84
2023-01-07T17:57:18.366Z,100372.81
2023-01-07T17:59:47.836Z,100376.06
2023-01-07T18:02:18.103Z,100358.72
2023-01-07T18:04:44.642Z,100378.22
2023-01-07T18:07:15.569Z,100377.63
2023-01-07T18:09:43.326Z,100364.13
2023-01-07T18:12:30.249Z,100363.84
2023-01-07T18:15:02.044Z,100358.94
2023-01-07T18:17:29.443Z,100361.13
2023-01-07T18:19:56.227Z,100353.53
2023-01-07T18:22:23.754Z,100358.69
2023-01-07T18:24:50.339Z,100361.94
2023-01-07T18:27:17.619Z,100362.72
2023-01-07T18:29:44.166Z,100357.88
2023-01-07T18:32:10.650Z,100344.84
2023-01-07T18:34:37.189Z,100357.06
2023-01-07T18:37:03.590Z,100342.69
2023-01-07T18:39:30.501Z,100348.09
2023-01-07T18:41:58.250Z,100343.22
2023-01-07T18:44:25.095Z,100338.38
2023-01-07T18:46:51.594Z,100327.00
2023-01-07T18:49:18.182Z,100335.94
2023-01-07T18:51:47.962Z,100333.22
2023-01-07T18:54:15.533Z,100339.44
2023-01-07T18:56:41.973Z,100342.94
2023-01-07T18:59:08.376Z,100337.00
2023-01-07T19:01:35.087Z,100340.50
2023-01-07T19:04:02.693Z,100338.09
2023-01-07T19:06:29.240Z,100346.47
2023-01-07T19:08:56.373Z,100329.97
2023-01-07T19:11:22.848Z,100323.44
2023-01-07T19:13:49.237Z,100324.84
2023-01-07T19:16:15.798Z,100311.03
2023-01-07T19:18:42.262Z,100311.84
2023-01-07T19:21:11.454Z,100321.88
2023-01-07T19:23:38.157Z,100316.72
2023-01-07T19:26:07.077Z,100325.38
2023-01-07T19:28:33.608Z,100324.31
2023-01-07T19:31:03.873Z,100331.31
2023-01-07T19:33:30.336Z,100319.94
2023-01-07T19:36:07.641Z,100318.31
2023-01-07T19:38:38.327Z,100322.63
2023-01-07T19:41:07.767Z,100314.25
2023-01-07T19:43:34.378Z,100309.66
2023-01-07T19:46:00.962Z,100305.56
2023-01-07T19:48:28.533Z,100304.75
2023-01-07T19:50:56.814Z,100303.97
2023-01-07T19:53:24.108Z,100291.22
2023-01-07T19:55:51.956Z,100279.06
2023-01-07T19:58:18.359Z,100275.00
2023-01-07T20:00:44.822Z,100269.84
2023-01-07T20:03:11.460Z,100262.56
2023-01-07T20:05:38.171Z,100249.84
2023-01-07T20:08:04.856Z,100246.31
2023-01-07T20:10:31.494Z,100234.94
2023-01-07T20:12:57.970Z,100225.47
2023-01-07T20:15:24.759Z,100225.75
2023-01-07T20:17:51.154Z,100217.06
2023-01-07T20:20:18.364Z,100221.69
2023-01-07T20:22:45.548Z,100218.41
2023-01-07T20:25:12.282Z,100216.28
2023-01-07T20:27:38.672Z,100203.53
2023-01-07T20:30:07.145Z,100203.53
2023-01-07T20:32:34.158Z,100190.56
2023-01-07T20:35:00.927Z,100187.03
2023-01-07T20:37:28.052Z,100174.84
2023-01-07T20:39:55.146Z,100171.31
2023-01-07T20:42:22.390Z,100169.97
2023-01-07T20:44:51.471Z,100172.41
2023-01-07T20:47:18.562Z,100172.13
2023-01-07T20:49:45.011Z,100175.66
2023-01-07T20:52:11.406Z,100170.53
2023-01-07T20:54:38.158Z,100173.22
2023-01-07T20:57:04.652Z,100165.13
2023-01-07T20:59:31.062Z,100178.66
2023-01-07T21:01:57.659Z,100184.06
2023-01-07T21:04:24.213Z,100179.97
2023-01-07T21:06:50.622Z,100186.19
2023-01-07T21:09:19.525Z,100190.00
2023-01-07T21:11:47.220Z,100200.56
2023-01-07T21:14:13.631Z,100207.59
2023-01-07T21:16:40.161Z,100200.56
2023-01-07T21:19:06.604Z,100207.59
2023-01-07T21:21:33.074Z,100210.59
2023-01-07T21:23:59.616Z,100200.31
2023-01-07T21:26:26.086Z,100191.66
2023-01-07T21:28:55.680Z,100197.84
2023-01-07T21:31:23.428Z,100183.78
2023-01-07T21:33:53.518Z,100179.16
2023-01-07T21:36:19.953Z,100178.34
2023-01-07T21:38:51.272Z,100179.44
2023-01-07T21:41:17.677Z,100155.06
2023-01-07T21:43:44.575Z,100161.00
2023-01-07T21:46:11.484Z,100155.56
2023-01-07T21:48:40.521Z,100159.31
2023-01-07T21:51:10.528Z,100162.03
2023-01-07T21:53:37.610Z,100158.25
2023-01-07T21:56:06.688Z,100143.88
2023-01-07T21:58:34.025Z,100144.44
2023-01-07T22:01:00.965Z,100149.88
2023-01-07T22:03:29.412Z,100149.88
2023-01-07T22:06:00.854Z,100153.13
2023-01-07T22:08:29.419Z,100150.44
2023-01-07T22:10:55.865Z,100161.22
2023-01-07T22:13:22.829Z,100158.50
2023-01-07T22:15:49.727Z,100155.28
2023-01-07T22:18:16.204Z,100161.50
2023-01-07T22:20:42.716Z,100158.25
2023-01-07T22:23:15.769Z,100148.22
2023-01-07T22:25:42.195Z,100141.19
2023-01-07T22:28:09.308Z,100152.03
2023-01-07T22:30:37.277Z,100150.97
2023-01-07T22:33:04.551Z,100147.44
2023-01-07T22:35:31.095Z,100158.78
2023-01-07T22:37:57.545Z,100142.53
2023-01-07T22:40:23.956Z,100143.63
2023-01-07T22:42:58.460Z,100133.88
2023-01-07T22:45:41.932Z,100147.38
2023-01-07T22:48:12.161Z,100147.91
2023-01-07T22:50:38.937Z,100140.53
2023-01-07T22:53:07.077Z,100143.81
2023-01-07T22:55:33.881Z,100144.31
2023-01-07T22:58:01.629Z,100129.97
2023-01-07T23:01:06.014Z,100126.19
2023-01-07T23:03:32.921Z,100118.81
2023-01-07T23:05:59.580Z,100113.13
2023-01-07T23:08:29.258Z,100109.03
2023-01-07T23:10:55.787Z,100100.63
2023-01-07T23:13:22.740Z,100106.09
2023-01-07T23:15:49.190Z,100099.03
2023-01-07T23:18:15.649Z,100107.19
2023-01-07T23:20:43.295Z,100103.16
2023-01-07T23:23:11.891Z,100101.22
2023-01-07T23:25:48.600Z,100093.38
2023-01-07T23:28:17.122Z,100075.78
2023-01-07T23:30:43.491Z,100083.88
2023-01-07T23:33:10.171Z,100085.56
2023-01-07T23:35:45.424Z,100084.75
2023-01-07T23:38:11.893Z,100072.03
2023-01-07T23:40:39.458Z,100077.44
2023-01-07T23:43:05.899Z,100071.22
2023-01-07T23:45:32.767Z,100068.50
2023-01-07T23:47:59.411Z,100078.47
2023-01-07T23:50:25.837Z,100085.25
2023-01-07T23:52:52.352Z,100080.59
2023-01-07T23:55:18.750Z,100083.03
2023-01-07T23:57:45.155Z,100083.81
